createdAt,value
2023-04-10T00:00:04.544Z,80.50
2023-04-10T00:02:39.274Z,80.02
2023-04-10T00:05:14.175Z,79.43
2023-04-10T00:07:50.554Z,78.99
2023-04-10T00:10:26.769Z,78.64
2023-04-10T00:13:03.668Z,78.27
2023-04-10T00:15:38.250Z,78.07
2023-04-10T00:18:13.486Z,78.49
2023-04-10T00:20:48.115Z,78.49
2023-04-10T00:23:24.424Z,78.26
2023-04-10T00:25:59.080Z,78.40
2023-04-10T00:28:33.294Z,78.21
2023-04-10T00:31:07.979Z,78.16
2023-04-10T00:33:42.208Z,77.21
2023-04-10T00:36:17.415Z,76.82
2023-04-10T00:38:53.632Z,76.81
2023-04-10T00:41:29.555Z,77.01
2023-04-10T00:44:03.951Z,77.46
2023-04-10T00:46:39.530Z,77.18
2023-04-10T00:49:14.728Z,77.29
2023-04-10T00:51:49.910Z,77.02
2023-04-10T00:54:25.618Z,76.77
2023-04-10T00:57:00.581Z,78.36
2023-04-10T00:59:35.137Z,79.15
2023-04-10T01:02:11.488Z,79.70
2023-04-10T01:04:46.095Z,80.21
2023-04-10T01:07:32.335Z,80.83
2023-04-10T01:10:17.541Z,80.81
2023-04-10T01:13:01.113Z,82.03
2023-04-10T01:15:44.056Z,81.62
2023-04-10T01:18:25.758Z,81.75
2023-04-10T01:21:03.733Z,80.82
2023-04-10T01:24:17.316Z,81.15
2023-04-10T01:27:11.385Z,81.53
2023-04-10T01:29:53.573Z,81.48
2023-04-10T01:32:32.083Z,81.71
2023-04-10T01:35:09.814Z,81.66
2023-04-10T01:37:47.344Z,81.24
2023-04-10T01:40:23.290Z,81.59
2023-04-10T01:43:00.477Z,80.63
2023-04-10T01:45:38.117Z,80.08
2023-04-10T01:48:12.907Z,80.25
2023-04-10T01:50:49.136Z,80.84
2023-04-10T01:53:25.284Z,80.39
2023-04-10T01:56:00.831Z,80.16
2023-04-10T01:58:35.803Z,80.34
2023-04-10T02:01:29.200Z,80.91
2023-04-10T02:04:05.446Z,80.78
2023-04-10T02:06:46.734Z,80.80
2023-04-10T02:09:27.514Z,80.24
2023-04-10T02:12:07.366Z,79.15
2023-04-10T02:14:46.678Z,79.44
2023-04-10T02:17:27.939Z,80.13
2023-04-10T02:20:04.315Z,81.10
2023-04-10T02:22:39.297Z,82.55
2023-04-10T02:25:14.002Z,82.74
2023-04-10T02:27:48.301Z,82.69
2023-04-10T02:30:23.608Z,82.81
2023-04-10T02:32:59.742Z,83.29
2023-04-10T02:35:35.217Z,82.92
2023-04-10T02:38:11.070Z,82.48
2023-04-10T02:40:46.285Z,82.13
2023-04-10T02:43:20.920Z,81.95
2023-04-10T02:45:55.788Z,81.73
2023-04-10T02:48:31.956Z,81.25
2023-04-10T02:51:07.713Z,80.56
2023-04-10T02:53:42.418Z,79.24
2023-04-10T02:56:30.118Z,78.62
2023-04-10T02:59:05.211Z,78.69
2023-04-10T03:01:40.890Z,78.76
2023-04-10T03:04:17.301Z,79.02
2023-04-10T03:06:52.016Z,79.26
2023-04-10T03:09:26.450Z,78.88
2023-04-10T03:12:02.252Z,79.12
2023-04-10T03:14:37.067Z,78.53
2023-04-10T03:17:12.311Z,78.34
2023-04-10T03:19:48.122Z,77.80
2023-04-10T03:22:23.130Z,78.70
2023-04-10T03:24:57.853Z,78.10
2023-04-10T03:27:35.095Z,79.41
2023-04-10T03:30:11.037Z,79.56
2023-04-10T03:32:46.503Z,79.58
2023-04-10T03:35:22.397Z,78.50
2023-04-10T03:37:57.130Z,77.81
2023-04-10T03:40:31.464Z,79.48
2023-04-10T03:43:06.253Z,79.78
2023-04-10T03:45:40.714Z,79.74
2023-04-10T03:48:15.479Z,79.38
2023-04-10T03:50:51.346Z,78.58
2023-04-10T03:53:26.565Z,78.74
2023-04-10T03:56:01.316Z,78.17
2023-04-10T03:58:36.531Z,78.59
2023-04-10T04:01:11.434Z,78.67
2023-04-10T04:03:47.194Z,79.34
2023-04-10T04:06:27.393Z,79.01
2023-04-10T04:09:02.228Z,79.69
2023-04-10T04:11:38.608Z,79.92
2023-04-10T04:14:14.228Z,79.98
2023-04-10T04:16:49.505Z,80.29
2023-04-10T04:19:26.193Z,79.72
2023-04-10T04:22:07.927Z,79.48
2023-04-10T04:24:43.346Z,80.08
2023-04-10T04:27:21.955Z,80.87
2023-04-10T04:29:57.137Z,81.26
2023-04-10T04:32:31.667Z,80.69
2023-04-10T04:35:07.292Z,80.23
2023-04-10T04:37:43.380Z,79.95
2023-04-10T04:40:18.801Z,79.46
2023-04-10T04:42:53.414Z,79.52
2023-04-10T04:45:29.666Z,80.00
2023-04-10T04:48:04.474Z,79.34
2023-04-10T04:50:41.789Z,79.18
2023-04-10T04:53:19.974Z,79.32
2023-04-10T04:55:54.866Z,79.46
2023-04-10T04:58:30.486Z,80.47
2023-04-10T05:01:05.555Z,82.00
2023-04-10T05:03:40.240Z,84.83
2023-04-10T05:06:18.806Z,84.92
2023-04-10T05:08:55.810Z,84.55
2023-04-10T05:11:31.344Z,85.53
2023-04-10T05:14:06.037Z,84.43
2023-04-10T05:16:40.808Z,83.25
2023-04-10T05:19:16.395Z,82.80
2023-04-10T05:21:55.787Z,82.77
2023-04-10T05:24:32.030Z,82.70
2023-04-10T05:27:07.442Z,83.66
2023-04-10T05:29:42.055Z,83.97
2023-04-10T05:32:17.137Z,84.27
2023-04-10T05:34:51.618Z,85.05
2023-04-10T05:37:26.441Z,85.25
2023-04-10T05:40:02.693Z,84.05
2023-04-10T05:42:38.409Z,83.85
2023-04-10T05:45:15.141Z,84.26
2023-04-10T05:47:51.988Z,84.47
2023-04-10T05:50:27.314Z,83.47
2023-04-10T05:53:04.424Z,83.76
2023-04-10T05:55:42.662Z,84.52
2023-04-10T05:58:19.409Z,85.10
2023-04-10T06:02:54.599Z,82.05
2023-04-10T06:05:30.846Z,82.05
2023-04-10T06:08:06.802Z,84.02
2023-04-10T06:10:41.851Z,84.03
2023-04-10T06:13:17.986Z,83.36
2023-04-10T06:15:53.157Z,84.14
2023-04-10T06:18:28.979Z,100.00
2023-04-10T06:21:03.574Z,80.08
2023-04-10T06:23:38.302Z,81.01
2023-04-10T06:26:13.598Z,79.96
2023-04-10T06:28:48.302Z,80.68
2023-04-10T06:31:23.306Z,81.16
2023-04-10T06:33:59.166Z,81.38
2023-04-10T06:36:35.157Z,80.65
2023-04-10T06:39:09.994Z,80.29
2023-04-10T06:41:45.183Z,80.75
2023-04-10T06:44:20.828Z,81.33
2023-04-10T06:46:55.608Z,79.82
2023-04-10T06:49:31.340Z,80.05
2023-04-10T06:52:06.937Z,80.06
2023-04-10T06:54:41.714Z,79.01
2023-04-10T06:57:16.478Z,78.87
2023-04-10T06:59:50.888Z,79.50
2023-04-10T07:02:25.696Z,77.66
2023-04-10T07:05:01.634Z,77.97
2023-04-10T07:07:36.295Z,77.93
2023-04-10T07:10:11.695Z,77.76
2023-04-10T07:12:46.362Z,87.71
2023-04-10T07:15:20.993Z,94.49
2023-04-10T07:17:56.446Z,83.05
2023-04-10T07:20:32.294Z,69.42
2023-04-10T07:23:07.328Z,70.20
2023-04-10T07:25:48.467Z,72.89
2023-04-10T07:28:24.832Z,73.18
2023-04-10T07:30:59.314Z,72.49
2023-04-10T07:33:34.018Z,72.76
2023-04-10T07:36:10.348Z,71.75
2023-04-10T07:38:45.089Z,72.52
2023-04-10T07:41:19.422Z,74.41
2023-04-10T07:43:54.128Z,71.87
2023-04-10T07:46:28.721Z,72.47
2023-04-10T07:49:03.498Z,71.33
2023-04-10T07:51:39.259Z,72.42
2023-04-10T07:54:14.441Z,72.85
2023-04-10T07:56:48.815Z,72.48
2023-04-10T07:59:23.517Z,71.54
2023-04-10T08:01:57.892Z,73.13
2023-04-10T08:04:32.813Z,71.77
2023-04-10T08:07:08.635Z,72.32
2023-04-10T08:09:43.572Z,70.85
2023-04-10T08:12:18.007Z,70.83
2023-04-10T08:14:52.765Z,70.59
2023-04-10T08:17:27.110Z,77.53
2023-04-10T08:20:01.875Z,79.97
2023-04-10T08:22:37.670Z,70.49
2023-04-10T08:25:12.412Z,66.01
2023-04-10T08:27:46.734Z,66.89
2023-04-10T08:30:21.668Z,66.67
2023-04-10T08:32:56.469Z,67.69
2023-04-10T08:35:31.645Z,66.60
2023-04-10T08:38:13.918Z,66.47
2023-04-10T14:03:04.358Z,62.77
2023-04-10T14:05:39.745Z,62.77
2023-04-10T14:08:16.019Z,47.58
2023-04-10T14:10:50.910Z,45.55
2023-04-10T14:13:25.418Z,44.49
2023-04-10T14:16:01.366Z,43.89
2023-04-10T14:18:37.554Z,43.18
2023-04-10T14:21:12.234Z,43.66
2023-04-10T14:23:46.625Z,45.53
2023-04-10T14:26:21.736Z,44.31
2023-04-10T14:28:56.212Z,45.98
2023-04-10T14:31:31.407Z,46.55
2023-04-10T14:34:07.210Z,47.33
2023-04-10T14:36:41.891Z,47.63
2023-04-10T14:39:16.760Z,47.37
2023-04-10T14:41:53.508Z,49.18
2023-04-10T14:44:28.124Z,48.00
2023-04-10T14:47:06.246Z,49.38
2023-04-10T14:49:42.432Z,48.89
2023-04-10T14:52:17.024Z,48.18
2023-04-10T14:54:51.691Z,49.05
2023-04-10T14:57:26.340Z,49.65
2023-04-10T15:00:01.544Z,49.60
2023-04-10T15:02:36.359Z,48.58
2023-04-10T15:05:12.704Z,48.53
2023-04-10T15:07:47.515Z,47.54
2023-04-10T15:10:22.317Z,48.58
2023-04-10T15:12:57.081Z,49.77
2023-04-10T15:15:31.407Z,55.95
2023-04-10T15:18:06.369Z,60.18
2023-04-10T15:20:42.128Z,51.15
2023-04-10T15:23:16.743Z,49.55
2023-04-10T15:25:51.212Z,49.06
2023-04-10T15:28:28.278Z,49.05
2023-04-10T15:31:02.706Z,48.12
2023-04-10T15:33:39.315Z,48.20
2023-04-10T15:36:15.144Z,49.72
2023-04-10T15:38:50.418Z,49.60
2023-04-10T15:41:24.945Z,49.94
2023-04-10T15:44:00.525Z,49.86
2023-04-10T15:46:34.909Z,48.79
2023-04-10T15:49:09.708Z,48.45
2023-04-10T15:51:45.928Z,48.29
2023-04-10T15:54:20.647Z,48.15
2023-04-10T15:56:54.947Z,48.08
2023-04-10T15:59:29.687Z,47.96
2023-04-10T16:02:04.486Z,47.53
2023-04-10T16:04:39.443Z,47.66
2023-04-10T16:07:15.326Z,47.21
2023-04-10T16:09:52.505Z,47.35
2023-04-10T16:12:27.117Z,46.68
2023-04-10T16:15:01.812Z,51.64
2023-04-10T16:17:36.482Z,47.15
2023-04-10T16:20:11.610Z,46.42
2023-04-10T16:22:47.394Z,46.39
2023-04-10T16:25:23.273Z,46.62
2023-04-10T16:27:57.721Z,47.43
2023-04-10T16:30:32.509Z,47.44
2023-04-10T16:33:06.986Z,47.31
2023-04-10T16:35:41.815Z,48.03
2023-04-10T16:38:17.666Z,48.83
2023-04-10T16:40:52.447Z,49.31
2023-04-10T16:43:26.751Z,49.36
2023-04-10T16:46:01.640Z,50.89
2023-04-10T16:48:36.439Z,62.46
2023-04-10T16:51:17.826Z,65.09
2023-04-10T16:53:53.619Z,50.89
2023-04-10T16:56:28.465Z,51.50
2023-04-10T16:59:02.860Z,52.14
2023-04-10T17:01:40.007Z,53.34
2023-04-10T17:04:16.833Z,53.56
2023-04-10T17:06:51.575Z,54.64
2023-04-10T17:09:27.384Z,54.82
2023-04-10T17:12:02.667Z,55.04
2023-04-10T17:14:37.119Z,55.51
2023-04-10T17:17:11.856Z,55.94
2023-04-10T17:19:46.230Z,56.42
2023-04-10T17:22:23.256Z,57.47
2023-04-10T17:24:58.996Z,69.98
2023-04-10T17:27:33.678Z,69.91
2023-04-10T17:30:13.573Z,56.09
2023-04-10T17:32:49.507Z,56.58
2023-04-10T17:35:25.535Z,56.82
2023-04-10T17:38:00.347Z,57.59
2023-04-10T17:40:36.122Z,57.81
2023-04-10T17:43:10.952Z,57.88
2023-04-10T17:45:45.267Z,58.23
2023-04-10T17:48:20.675Z,58.68
2023-04-10T17:50:55.226Z,59.43
2023-04-10T17:53:30.221Z,60.31
2023-04-10T17:56:06.476Z,60.87
2023-04-10T17:58:42.053Z,61.24
2023-04-10T18:01:23.447Z,61.52
2023-04-10T18:03:59.298Z,62.24
2023-04-10T18:06:33.771Z,62.18
2023-04-10T18:09:08.418Z,62.47
2023-04-10T18:11:44.280Z,63.09
2023-04-10T18:14:18.948Z,63.36
2023-04-10T18:16:53.368Z,64.61
2023-04-10T18:19:29.680Z,64.87
2023-04-10T18:22:04.195Z,64.22
2023-04-10T18:24:39.075Z,64.25
2023-04-10T18:27:15.117Z,64.04
2023-04-10T18:29:49.869Z,64.08
2023-04-10T18:32:24.267Z,63.95
2023-04-10T18:35:00.005Z,64.41
2023-04-10T18:37:34.804Z,64.01
2023-04-10T18:40:16.184Z,64.94
2023-04-10T18:42:52.868Z,64.60
2023-04-10T18:45:27.630Z,64.62
2023-04-10T18:48:02.123Z,64.93
2023-04-10T18:50:39.285Z,64.73
2023-04-10T18:53:14.188Z,64.69
2023-04-10T18:55:52.694Z,65.30
2023-04-10T18:58:28.617Z,64.91
2023-04-10T19:01:03.347Z,64.91
2023-04-10T19:03:38.850Z,65.08
2023-04-10T19:06:13.935Z,65.80
2023-04-10T19:08:48.250Z,66.30
2023-04-10T19:11:23.363Z,66.10
2023-04-10T19:13:59.856Z,66.38
2023-04-10T19:16:35.095Z,66.70
2023-04-10T19:19:10.002Z,66.13
2023-04-10T19:21:44.932Z,66.26
2023-04-10T19:24:19.438Z,66.84
2023-04-10T19:26:56.270Z,66.92
2023-04-10T19:29:32.290Z,66.71
2023-04-10T19:32:07.610Z,67.66
2023-04-10T19:34:42.269Z,67.85
2023-04-10T19:37:16.893Z,68.32
2023-04-10T19:39:51.309Z,68.56
2023-04-10T19:42:25.944Z,68.96
2023-04-10T19:45:02.394Z,69.71
2023-04-10T19:47:37.766Z,69.75
2023-04-10T19:50:12.500Z,69.78
2023-04-10T19:52:47.519Z,70.81
2023-04-10T19:55:22.387Z,70.53
2023-04-10T19:57:56.989Z,70.87
2023-04-10T20:00:32.881Z,70.78
2023-04-10T20:03:07.956Z,71.57
2023-04-10T20:05:42.702Z,72.71
2023-04-10T20:08:18.018Z,72.67
2023-04-10T20:10:52.399Z,71.70
2023-04-10T20:13:27.061Z,71.41
2023-04-10T20:16:02.966Z,71.06
2023-04-10T20:18:37.922Z,70.67
2023-04-10T20:21:12.236Z,70.78
2023-04-10T20:23:46.959Z,70.38
2023-04-10T20:26:21.302Z,70.24
2023-04-10T20:28:56.406Z,70.24
2023-04-10T20:31:34.566Z,70.17
2023-04-10T20:34:09.457Z,70.25
2023-04-10T20:36:43.715Z,92.21
2023-04-10T20:39:18.488Z,89.44
2023-04-10T20:41:52.884Z,82.11
2023-04-10T20:44:27.606Z,68.61
2023-04-10T20:47:03.373Z,69.77
2023-04-10T20:49:38.585Z,70.92
2023-04-10T20:52:12.937Z,71.73
2023-04-10T20:54:47.628Z,72.34
2023-04-10T20:57:22.145Z,89.86
2023-04-10T20:59:57.408Z,84.22
2023-04-10T21:02:33.620Z,77.08
2023-04-10T21:05:08.771Z,69.45
2023-04-10T21:07:43.286Z,69.33
2023-04-10T21:10:18.125Z,69.41
2023-04-10T21:12:52.423Z,71.14
2023-04-10T21:15:27.197Z,71.70
2023-04-10T21:18:05.075Z,72.76
2023-04-10T21:20:39.884Z,72.47
2023-04-10T21:23:14.281Z,72.47
2023-04-10T21:25:52.951Z,73.16
2023-04-10T21:28:27.433Z,72.61
2023-04-10T21:31:02.046Z,73.55
2023-04-10T21:33:37.810Z,74.20
2023-04-10T21:36:12.518Z,73.51
2023-04-10T21:38:47.070Z,73.56
2023-04-10T21:41:21.878Z,74.06
2023-04-10T21:43:56.701Z,74.29
2023-04-10T21:46:32.174Z,74.42
2023-04-10T21:49:07.862Z,74.54
2023-04-10T21:51:42.809Z,74.47
2023-04-10T21:54:17.040Z,74.26
2023-04-10T21:56:51.699Z,73.17
2023-04-10T21:59:26.653Z,74.17
2023-04-10T22:03:00.556Z,73.96
2023-04-10T22:05:35.725Z,73.99
2023-04-10T22:08:10.240Z,73.39
2023-04-10T22:10:45.777Z,74.79
2023-04-10T22:13:30.126Z,74.71
2023-04-10T22:16:06.393Z,74.90
2023-04-10T22:18:42.625Z,74.77
2023-04-10T22:21:17.242Z,74.66
2023-04-10T22:23:51.572Z,75.53
2023-04-10T22:26:26.234Z,75.58
2023-04-10T22:29:01.164Z,75.75
2023-04-10T22:31:35.866Z,75.51
2023-04-10T22:34:11.935Z,75.11
2023-04-10T22:36:46.550Z,74.70
2023-04-10T22:39:20.923Z,75.74
2023-04-10T22:41:55.818Z,75.32
2023-04-10T22:44:30.262Z,75.94
2023-04-10T22:47:04.980Z,77.33
2023-04-10T22:49:40.760Z,75.82
2023-04-10T22:52:16.343Z,74.95
2023-04-10T22:54:50.654Z,75.77
2023-04-10T22:57:25.270Z,76.38
2023-04-10T23:00:00.581Z,77.19
2023-04-10T23:02:35.848Z,78.12
2023-04-10T23:05:11.910Z,77.50
2023-04-10T23:07:47.031Z,77.26
2023-04-10T23:10:21.525Z,77.02
2023-04-10T23:12:56.434Z,76.16
2023-04-10T23:15:30.745Z,77.19
2023-04-10T23:18:05.661Z,76.82
2023-04-10T23:20:41.376Z,77.03
2023-04-10T23:23:16.324Z,76.70
2023-04-10T23:25:59.034Z,76.29
2023-04-10T23:28:34.057Z,76.86
2023-04-10T23:31:09.486Z,76.63
2023-04-10T23:33:44.608Z,76.96
2023-04-10T23:36:20.621Z,76.81
2023-04-10T23:38:55.505Z,76.67
2023-04-10T23:41:29.977Z,76.93
2023-04-10T23:44:04.640Z,76.92
2023-04-10T23:46:39.059Z,76.04
2023-04-10T23:49:14.267Z,76.42
2023-04-10T23:51:50.053Z,76.16
2023-04-10T23:54:24.813Z,77.66
2023-04-10T23:57:00.424Z,77.62
2023-04-10T23:59:35.079Z,77.14
